Time;durP1;ratioP1;P1;durP2;ratioP2;P2;SDS_P1;SDS_P2;PMS_P1;PMS_P2;Temp;Humidity;BMP_temperature;BMP_pressure;BME280_temperature;BME280_humidity;BME280_pressure;Samples;Min_cycle;Max_cycle;Signal;HPM_P1;HPM_P2
2021/06/29 00:00:52;;;;;;;12.50;3.35;;;;;;;19.03;77.04;98062.44;4941969;28;20401;-64
2021/06/29 00:03:18;;;;;;;7.25;3.10;;;;;;;19.08;76.97;98072.41;4941980;29;20048;-66
2021/06/29 00:05:47;;;;;;;9.90;3.00;;;;;;;19.15;76.99;98072.53;4940993;29;20069;-65
2021/06/29 00:08:14;;;;;;;7.18;2.53;;;;;;;18.85;76.71;98068.50;4941569;29;20089;-64
2021/06/29 00:10:40;;;;;;;;;;;;;;;18.69;77.89;98067.84;4941970;29;20079;-64
2021/06/29 00:13:06;;;;;;;10.53;3.00;;;;;;;18.62;77.82;98062.22;4941725;28;19926;-64
2021/06/29 00:15:33;;;;;;;10.52;3.03;;;;;;;18.77;77.66;98064.03;4942293;29;20377;-64
2021/06/29 00:17:59;;;;;;;6.50;2.88;;;;;;;18.82;77.27;98068.47;4941091;29;20048;-64
2021/06/29 00:20:26;;;;;;;8.80;2.80;;;;;;;18.74;77.08;98070.34;4941845;29;20052;-64
2021/06/29 00:22:52;;;;;;;9.85;2.97;;;;;;;18.75;77.07;98066.38;4940986;28;20052;-64
2021/06/29 00:25:22;;;;;;;10.70;2.88;;;;;;;18.79;77.41;98069.19;4942093;29;20066;-65
2021/06/29 00:27:48;;;;;;;8.73;3.25;;;;;;;18.89;76.96;98060.25;4941401;28;20582;-65
2021/06/29 00:30:15;;;;;;;10.30;2.90;;;;;;;18.93;77.04;98079.69;4941585;28;20058;-64
2021/06/29 00:32:42;;;;;;;10.77;3.10;;;;;;;18.80;77.09;98071.59;4943173;29;20047;-64
2021/06/29 00:35:12;;;;;;;8.65;2.85;;;;;;;18.98;76.91;98077.41;4945390;29;20106;-64
2021/06/29 00:37:39;;;;;;;16.55;3.22;;;;;;;19.02;76.79;98066.41;4945057;28;20052;-64
2021/06/29 00:40:07;;;;;;;8.57;3.00;;;;;;;19.10;76.69;98067.28;4944125;29;20130;-63
2021/06/29 00:42:38;;;;;;;10.65;3.25;;;;;;;19.12;76.53;98067.72;4944721;29;20051;-64
2021/06/29 00:45:06;;;;;;;6.72;2.65;;;;;;;19.11;76.20;98072.47;4945056;29;20416;-64
2021/06/29 00:47:32;;;;;;;7.50;3.00;;;;;;;19.04;76.62;98066.03;4945082;28;20067;-64
2021/06/29 00:49:59;;;;;;;7.67;2.97;;;;;;;19.01;76.97;98083.41;4943100;29;20047;-63
2021/06/29 00:52:29;;;;;;;7.90;3.03;;;;;;;18.96;76.80;98079.72;4943954;28;20696;-64
2021/06/29 00:54:55;;;;;;;12.32;3.17;;;;;;;18.93;76.67;98080.47;4928046;29;20058;-64
2021/06/29 00:57:21;;;;;;;7.75;2.78;;;;;;;18.94;76.77;98076.53;4945140;29;20105;-66
2021/06/29 00:59:49;;;;;;;8.27;3.30;;;;;;;18.82;76.99;98077.56;4942535;29;20054;-64
2021/06/29 01:02:18;;;;;;;9.82;3.20;;;;;;;18.80;77.54;98077.13;4944168;29;20108;-64
2021/06/29 01:04:45;;;;;;;11.05;3.10;;;;;;;18.78;77.16;98073.94;4944714;29;20111;-65
2021/06/29 01:07:13;;;;;;;7.55;3.08;;;;;;;18.75;77.58;98068.34;4944756;29;20548;-65
2021/06/29 01:09:39;;;;;;;;;;;;;;;18.73;77.39;98077.00;4941527;29;20050;-64
2021/06/29 01:12:06;;;;;;;11.05;3.08;;;;;;;18.73;77.71;98081.75;4944570;29;20079;-65
2021/06/29 01:14:32;;;;;;;12.05;3.70;;;;;;;18.70;77.89;98081.34;4944131;29;20546;-65
2021/06/29 01:17:02;;;;;;;10.13;3.42;;;;;;;18.72;77.63;98083.72;4943620;29;20052;-63
2021/06/29 01:19:43;;;;;;;9.68;2.95;;;;;;;18.74;77.68;98077.81;4944291;29;20055;-65
2021/06/29 01:22:11;;;;;;;10.57;3.30;;;;;;;18.74;77.40;98072.28;4944329;29;20047;-65
2021/06/29 01:24:37;;;;;;;7.00;3.00;;;;;;;18.79;77.31;98080.25;4943822;29;20571;-65
2021/06/29 01:32:28;;;;;;;10.88;3.30;;;;;;;18.91;77.02;98059.91;4893887;29;20055;-65
2021/06/29 01:34:54;;;;;;;10.88;3.00;;;;;;;18.94;77.01;98070.22;4892391;29;20059;-62
2021/06/29 01:37:23;;;;;;;11.57;3.33;;;;;;;18.85;77.08;98062.19;4934025;29;20067;-64
2021/06/29 01:39:52;;;;;;;8.70;3.15;;;;;;;18.96;76.60;98082.50;4943949;29;20047;-65
2021/06/29 01:42:18;;;;;;;13.07;3.35;;;;;;;18.93;76.73;98083.25;4942604;28;20051;-65
2021/06/29 01:44:44;;;;;;;8.07;3.10;;;;;;;18.90;76.81;98081.22;4942233;29;20566;-64
2021/06/29 01:47:12;;;;;;;8.43;3.10;;;;;;;18.95;76.92;98080.91;4944183;29;20234;-65
2021/06/29 01:49:39;;;;;;;7.97;3.35;;;;;;;18.99;76.78;98079.03;4943133;29;20054;-65
2021/06/29 01:52:05;;;;;;;9.18;3.22;;;;;;;18.93;76.45;98088.00;4944112;29;20047;-65
2021/06/29 01:54:34;;;;;;;9.32;3.70;;;;;;;18.88;76.83;98085.53;4943641;29;20079;-64
2021/06/29 01:57:00;;;;;;;11.68;3.38;;;;;;;18.81;76.59;98072.38;4943733;29;20083;-65
2021/06/29 01:59:26;;;;;;;9.13;3.72;;;;;;;18.76;76.76;98073.53;4943681;29;20421;-64
2021/06/29 02:01:52;;;;;;;8.95;3.38;;;;;;;18.81;76.46;98077.91;4942343;28;20052;-63
2021/06/29 02:04:23;;;;;;;9.93;3.45;;;;;;;18.79;76.09;98074.72;4943414;29;20421;-65
2021/06/29 02:06:52;;;;;;;10.15;3.40;;;;;;;18.87;76.16;98072.88;4943816;28;20070;-65
2021/06/29 02:09:18;;;;;;;8.85;3.67;;;;;;;18.85;76.24;98076.81;4942947;29;20054;-64
2021/06/29 02:11:46;;;;;;;9.15;3.90;;;;;;;18.88;75.97;98083.59;4909954;29;20047;-63
2021/06/29 02:14:11;;;;;;;;;;;;;;;18.95;75.42;98089.22;4943224;29;20066;-64
2021/06/29 02:16:40;;;;;;;11.70;3.17;;;;;;;18.91;75.57;98088.38;4943333;29;19926;-64
2021/06/29 02:19:09;;;;;;;9.38;3.20;;;;;;;18.93;75.68;98091.56;4942342;29;20058;-65
2021/06/29 02:21:35;;;;;;;10.15;3.65;;;;;;;18.91;75.62;98085.59;4941887;29;20417;-65
2021/06/29 02:24:01;;;;;;;9.48;3.42;;;;;;;19.00;75.54;98096.44;4942458;29;20040;-65
2021/06/29 02:26:30;;;;;;;10.00;3.53;;;;;;;18.93;75.53;98086.03;4942865;29;20527;-65
2021/06/29 02:28:57;;;;;;;10.68;3.97;;;;;;;18.95;75.27;98088.44;4943184;29;20103;-64
2021/06/29 02:31:26;;;;;;;;;;;;;;;18.89;75.56;98093.47;4942565;28;20051;-64
2021/06/29 02:33:52;;;;;;;7.85;3.28;;;;;;;18.84;75.58;98085.50;4942022;29;19926;-64
2021/06/29 02:36:18;;;;;;;9.60;3.58;;;;;;;18.85;75.93;98092.63;4943194;29;20110;-65
2021/06/29 02:38:44;;;;;;;7.20;3.38;;;;;;;18.81;75.97;98087.03;4942263;29;20063;-63
2021/06/29 02:41:10;;;;;;;7.63;3.53;;;;;;;18.88;75.75;98091.06;4942973;28;20055;-65
2021/06/29 02:43:38;;;;;;;11.55;3.70;;;;;;;18.95;75.66;98099.50;4942232;29;20055;-64
2021/06/29 02:46:06;;;;;;;12.13;4.47;;;;;;;18.99;75.74;98100.38;4942802;29;20166;-64
2021/06/29 02:48:32;;;;;;;10.05;3.40;;;;;;;18.99;75.88;98103.97;4941569;29;20152;-64
2021/06/29 02:51:01;;;;;;;10.27;3.83;;;;;;;19.06;75.55;98094.16;4942777;29;20071;-64
2021/06/29 02:53:27;;;;;;;9.85;3.67;;;;;;;19.03;75.64;98101.22;4941303;28;20056;-64
2021/06/29 02:55:56;;;;;;;8.60;3.58;;;;;;;19.04;75.54;98099.25;4942535;28;20051;-64
2021/06/29 02:58:22;;;;;;;10.32;3.50;;;;;;;19.07;75.70;98095.75;4939478;29;20497;-63
2021/06/29 03:00:51;;;;;;;13.02;4.07;;;;;;;19.11;75.39;98108.47;4942283;28;20047;-64
2021/06/29 03:03:18;;;;;;;10.05;3.65;;;;;;;19.08;75.41;98108.41;4941574;29;20402;-66
2021/06/29 03:05:45;;;;;;;11.05;4.10;;;;;;;19.04;75.55;98100.03;4942610;29;20044;-63
2021/06/29 03:08:14;;;;;;;12.32;3.90;;;;;;;19.16;75.08;98098.25;4942666;29;20051;-65
2021/06/29 03:10:43;;;;;;;10.90;3.80;;;;;;;19.16;75.11;98110.13;4942460;29;20051;-65
2021/06/29 03:13:09;;;;;;;10.07;3.72;;;;;;;19.04;75.39;98105.59;4941734;28;20099;-65
2021/06/29 03:15:35;;;;;;;10.38;4.80;;;;;;;19.02;75.61;98102.41;4940668;29;20047;-64
2021/06/29 03:18:05;;;;;;;13.75;4.22;;;;;;;18.94;75.62;98098.69;4941774;28;20051;-65
2021/06/29 03:20:36;;;;;;;10.68;4.07;;;;;;;18.96;75.81;98092.78;4942473;29;20070;-64
2021/06/29 03:23:02;;;;;;;13.63;4.20;;;;;;;19.10;75.56;98104.09;4925161;29;20497;-65
2021/06/29 03:25:29;;;;;;;11.50;4.00;;;;;;;19.21;75.30;98092.41;4940455;29;20135;-65
2021/06/29 03:27:58;;;;;;;7.65;3.90;;;;;;;19.33;74.80;98105.22;4942400;28;20055;-65
2021/06/29 03:30:24;;;;;;;10.65;4.25;;;;;;;19.27;74.70;98094.44;4941587;29;20519;-65
2021/06/29 03:32:50;;;;;;;10.10;4.18;;;;;;;19.18;74.91;98105.00;4942028;29;20051;-65
2021/06/29 03:35:19;;;;;;;9.43;4.18;;;;;;;19.21;75.17;98107.03;4940665;29;20051;-65
2021/06/29 03:37:49;;;;;;;12.25;4.30;;;;;;;19.21;75.17;98111.78;4942484;28;20058;-65
2021/06/29 03:40:16;;;;;;;14.02;4.22;;;;;;;19.20;75.09;98108.19;4941454;29;20051;-64
2021/06/29 03:42:42;;;;;;;10.43;4.00;;;;;;;19.18;75.04;98104.19;4941727;29;20058;-64
2021/06/29 03:45:12;;;;;;;15.20;3.85;;;;;;;19.25;75.29;98107.09;4941523;29;20485;-65
2021/06/29 03:47:38;;;;;;;14.65;4.15;;;;;;;19.19;75.50;98108.56;4942122;28;20359;-64
2021/06/29 03:50:05;;;;;;;9.70;4.10;;;;;;;19.31;74.84;98116.66;4941527;29;20443;-65
2021/06/29 03:52:31;;;;;;;10.90;3.88;;;;;;;19.27;74.73;98122.13;4940411;28;20063;-65
2021/06/29 03:55:02;;;;;;;10.15;3.92;;;;;;;19.13;75.20;98117.22;4941664;29;20134;-64
2021/06/29 03:57:29;;;;;;;11.75;4.28;;;;;;;19.17;74.87;98108.16;4941805;29;20508;-65
2021/06/29 03:59:55;;;;;;;11.25;3.90;;;;;;;19.18;75.06;98118.03;4940614;29;20128;-64
2021/06/29 04:02:24;;;;;;;8.17;3.60;;;;;;;19.18;75.00;98113.31;4940378;29;20071;-65
2021/06/29 04:04:51;;;;;;;11.00;4.20;;;;;;;19.18;74.82;98109.75;4941818;28;20075;-65
2021/06/29 04:07:17;;;;;;;12.13;4.05;;;;;;;19.19;74.99;98117.69;4945740;28;20533;-65
2021/06/29 04:09:43;;;;;;;13.20;3.90;;;;;;;19.24;74.71;98117.34;4943941;29;20512;-64
2021/06/29 04:12:15;;;;;;;10.95;3.75;;;;;;;19.38;74.42;98124.28;4945238;28;20146;-65
2021/06/29 04:14:41;;;;;;;9.95;3.58;;;;;;;19.45;74.08;98123.56;4945500;29;20537;-65
2021/06/29 04:17:07;;;;;;;11.05;3.65;;;;;;;19.37;74.21;98123.50;4945692;29;20484;-66
2021/06/29 04:19:33;;;;;;;11.30;3.70;;;;;;;19.34;74.25;98132.53;4944051;29;20099;-65
2021/06/29 04:21:59;;;;;;;11.05;3.95;;;;;;;19.28;74.61;98131.25;4944522;29;20493;-65
2021/06/29 04:24:29;;;;;;;16.77;3.85;;;;;;;19.26;75.03;98133.63;4945390;29;20047;-64
2021/06/29 04:26:55;;;;;;;9.23;3.80;;;;;;;19.25;75.09;98132.03;4945075;28;20055;-65
2021/06/29 04:29:22;;;;;;;10.02;3.83;;;;;;;19.27;74.71;98130.44;4942579;29;20134;-65
2021/06/29 04:31:51;;;;;;;;;;;;;;;19.17;74.98;98128.34;4945389;29;20047;-65
2021/06/29 04:34:17;;;;;;;8.27;3.70;;;;;;;19.38;74.66;98135.34;4944850;29;19973;-65
2021/06/29 04:36:44;;;;;;;9.75;4.03;;;;;;;19.43;74.29;98129.47;4943988;28;20062;-64
2021/06/29 04:39:11;;;;;;;7.97;3.55;;;;;;;19.36;74.36;98134.94;4944094;29;20074;-65
2021/06/29 04:41:40;;;;;;;15.13;3.78;;;;;;;19.33;74.68;98136.47;4944724;28;20126;-65
2021/06/29 04:44:06;;;;;;;11.38;4.10;;;;;;;19.26;74.93;98133.63;4944995;29;20056;-65
2021/06/29 04:46:34;;;;;;;11.55;3.92;;;;;;;19.19;75.32;98131.53;4943581;28;20055;-65
2021/06/29 04:49:00;;;;;;;16.50;4.00;;;;;;;19.23;75.58;98137.13;4943812;29;20075;-65
2021/06/29 04:51:26;;;;;;;10.48;3.78;;;;;;;19.24;75.50;98133.97;4943135;29;20051;-66
2021/06/29 04:53:52;;;;;;;10.68;3.78;;;;;;;19.23;75.96;98134.38;4944957;29;20050;-65
2021/06/29 04:56:18;;;;;;;12.82;4.03;;;;;;;19.35;75.77;98133.34;4943000;29;20043;-65
2021/06/29 04:58:52;;;;;;;9.23;3.53;;;;;;;19.29;75.93;98129.31;4944812;29;20087;-65
2021/06/29 05:01:18;;;;;;;9.30;3.65;;;;;;;19.20;76.31;98132.31;4944426;29;20051;-65
2021/06/29 05:03:46;;;;;;;11.75;4.15;;;;;;;19.29;76.20;98127.31;4943462;29;20052;-65
2021/06/29 05:06:18;;;;;;;;;;;;;;;19.33;75.85;98132.91;4944200;28;20047;-64
2021/06/29 05:08:47;;;;;;;9.25;3.55;;;;;;;19.27;76.40;98127.69;4944375;29;19930;-65
2021/06/29 05:11:13;;;;;;;10.00;3.80;;;;;;;19.23;76.59;98123.28;4944178;29;20420;-64
2021/06/29 05:13:39;;;;;;;21.02;4.80;;;;;;;19.19;77.05;98123.22;4942253;29;20066;-64
2021/06/29 05:16:06;;;;;;;10.90;4.93;;;;;;;19.29;76.90;98123.75;4944091;28;20066;-65
2021/06/29 05:18:35;;;;;;;9.55;4.15;;;;;;;19.15;77.31;98125.16;4944442;29;20051;-65
2021/06/29 05:21:03;;;;;;;8.63;3.80;;;;;;;19.17;77.35;98122.00;4943741;28;20043;-65
2021/06/29 05:23:29;;;;;;;10.13;3.95;;;;;;;19.17;77.60;98127.53;4942627;29;20413;-65
2021/06/29 05:25:55;;;;;;;12.10;4.17;;;;;;;19.12;77.50;98125.88;4944492;29;20082;-65
2021/06/29 05:28:25;;;;;;;10.88;4.35;;;;;;;18.98;78.20;98130.03;4944014;29;20081;-64
2021/06/29 05:30:55;;;;;;;12.55;4.13;;;;;;;19.01;78.30;98136.00;4944156;29;20051;-65
2021/06/29 05:33:24;;;;;;;9.32;4.10;;;;;;;19.19;78.08;98133.50;4942840;29;20382;-65
2021/06/29 05:35:53;;;;;;;7.50;3.92;;;;;;;19.42;77.20;98134.22;4943837;28;20048;-65
2021/06/29 05:38:20;;;;;;;10.63;4.25;;;;;;;19.62;76.44;98125.00;4943576;29;20061;-65
2021/06/29 05:40:46;;;;;;;10.32;4.00;;;;;;;19.74;76.01;98135.03;4941937;29;20047;-64
2021/06/29 05:43:12;;;;;;;9.40;3.72;;;;;;;19.83;75.79;98133.56;4943749;29;20067;-65
2021/06/29 05:45:38;;;;;;;9.18;3.85;;;;;;;19.92;75.21;98126.97;4942697;29;20055;-65
2021/06/29 05:48:05;;;;;;;9.52;4.07;;;;;;;20.16;74.26;98133.97;4943870;28;20668;-65
2021/06/29 05:50:31;;;;;;;14.90;3.95;;;;;;;;;;4941594;29;20056;-64
2021/06/29 05:53:00;;;;;;;9.50;3.90;;;;;;;20.41;73.24;98136.19;4943258;28;20509;-65
2021/06/29 05:55:28;;;;;;;9.85;3.88;;;;;;;20.47;72.90;98125.53;4942288;29;20094;-68
2021/06/29 05:57:54;;;;;;;10.45;4.00;;;;;;;20.59;72.17;98113.34;4941881;29;20143;-66
2021/06/29 06:00:20;;;;;;;8.68;3.97;;;;;;;20.50;72.27;98116.44;4941405;29;20096;-66
2021/06/29 06:02:46;;;;;;;8.90;3.60;;;;;;;20.40;72.21;98117.94;4942878;28;20358;-65
2021/06/29 06:05:12;;;;;;;12.27;4.30;;;;;;;20.30;72.21;98122.19;4942170;29;20575;-65
2021/06/29 06:07:39;;;;;;;12.80;4.20;;;;;;;20.44;72.15;98127.09;4942629;28;20052;-63
2021/06/29 06:10:07;;;;;;;8.75;3.60;;;;;;;20.54;71.47;98118.06;4942806;29;20154;-64
2021/06/29 06:12:34;;;;;;;7.70;3.63;;;;;;;20.70;70.80;98122.56;4942480;28;20075;-64
2021/06/29 06:15:00;;;;;;;12.48;3.97;;;;;;;20.81;70.14;98126.25;4942093;29;20050;-65
2021/06/29 06:17:31;;;;;;;12.52;3.97;;;;;;;21.04;69.68;98114.09;4942587;28;20452;-66
2021/06/29 06:19:57;;;;;;;12.60;4.00;;;;;;;21.25;68.62;98118.22;4943085;29;20080;-64
2021/06/29 06:22:23;;;;;;;7.70;3.45;;;;;;;21.16;68.21;98118.56;4941858;29;20448;-63
2021/06/29 06:24:52;;;;;;;8.40;3.30;;;;;;;21.19;67.76;98123.34;4942974;29;20047;-64
2021/06/29 06:27:21;;;;;;;9.15;3.40;;;;;;;21.34;67.84;98118.66;4943188;29;20043;-65
2021/06/29 06:29:48;;;;;;;8.73;3.25;;;;;;;21.38;67.68;98127.03;4942428;28;20051;-66
2021/06/29 06:32:14;;;;;;;11.30;3.88;;;;;;;21.23;67.67;98104.72;4924895;29;20134;-65
2021/06/29 06:34:41;;;;;;;7.35;3.15;;;;;;;21.20;67.84;98115.78;4942451;29;20420;-63
2021/06/29 06:37:07;;;;;;;11.00;3.33;;;;;;;21.04;68.69;98111.34;4942523;28;20059;-64
2021/06/29 06:39:33;;;;;;;8.60;3.35;;;;;;;20.92;69.43;98111.66;4942307;29;20052;-64
2021/06/29 06:42:03;;;;;;;13.30;3.40;;;;;;;20.67;70.55;98117.78;4941382;29;20501;-66
2021/06/29 06:44:32;;;;;;;7.72;3.22;;;;;;;;;;4942649;29;20102;-66
2021/06/29 06:46:59;;;;;;;14.20;3.30;;;;;;;20.11;72.28;98115.69;4942964;28;20405;-66
2021/06/29 06:49:26;;;;;;;10.68;3.25;;;;;;;20.05;72.37;98128.28;4940560;29;20047;-64
2021/06/29 06:51:52;;;;;;;13.18;3.25;;;;;;;20.19;72.35;98130.44;4940725;29;20072;-66
2021/06/29 06:54:19;;;;;;;7.75;3.20;;;;;;;20.57;71.82;98124.84;4939855;29;20056;-65
2021/06/29 06:56:45;;;;;;;6.95;2.97;;;;;;;20.55;71.72;98139.09;4940348;29;20527;-65
2021/06/29 06:59:11;;;;;;;9.05;3.15;;;;;;;20.51;71.73;98135.50;4941913;29;20339;-65
2021/06/29 07:01:41;;;;;;;8.00;2.92;;;;;;;20.47;71.92;98147.72;4942241;28;20058;-65
2021/06/29 07:04:08;;;;;;;8.05;2.85;;;;;;;20.52;71.77;98148.19;4941550;29;20047;-65
2021/06/29 07:06:34;;;;;;;7.45;2.92;;;;;;;20.68;70.69;98147.94;4942059;28;20162;-68
2021/06/29 07:09:01;;;;;;;8.55;3.20;;;;;;;20.73;70.36;98137.66;4939741;29;20481;-65
2021/06/29 07:11:30;;;;;;;9.35;2.80;;;;;;;20.99;69.38;98147.00;4941895;29;20468;-65
2021/06/29 07:13:56;;;;;;;7.43;2.80;;;;;;;21.18;68.59;98145.97;4942001;29;20051;-65
2021/06/29 07:16:23;;;;;;;8.20;2.83;;;;;;;21.34;68.39;98151.22;4940885;29;20058;-64
2021/06/29 07:18:52;;;;;;;5.47;2.60;;;;;;;21.23;68.09;98153.94;4941881;29;20054;-65
2021/06/29 07:21:25;;;;;;;9.98;3.00;;;;;;;21.24;68.47;98153.53;4940461;29;20047;-64
2021/06/29 07:23:52;;;;;;;8.10;2.90;;;;;;;21.41;67.72;98150.47;4941147;29;20043;-63
2021/06/29 07:26:18;;;;;;;7.23;3.10;;;;;;;21.46;67.02;98164.00;4938653;29;20096;-65
2021/06/29 07:28:48;;;;;;;7.40;3.27;;;;;;;21.46;67.10;98155.66;4942094;29;20147;-65
2021/06/29 07:31:18;;;;;;;8.57;2.95;;;;;;;21.71;66.33;98160.59;4941877;28;20059;-65
2021/06/29 07:33:48;;;;;;;7.75;2.80;;;;;;;21.88;65.52;98154.31;4941969;29;20179;-66
2021/06/29 07:36:16;;;;;;;6.70;2.97;;;;;;;21.94;65.01;98155.50;4922472;29;20311;-65
2021/06/29 07:38:44;;;;;;;7.65;3.15;;;;;;;21.96;64.24;98153.13;4941036;29;20075;-65
2021/06/29 07:41:11;;;;;;;10.35;2.70;;;;;;;22.21;63.70;98146.88;4943609;28;20044;-65
2021/06/29 07:43:38;;;;;;;7.43;2.97;;;;;;;22.23;63.37;98155.59;4944878;29;20044;-64
2021/06/29 07:46:07;;;;;;;14.25;3.30;;;;;;;22.36;62.82;98150.47;4945308;28;20083;-64
2021/06/29 07:48:36;;;;;;;8.27;2.88;;;;;;;22.12;63.47;98151.22;4945930;29;20050;-64
2021/06/29 07:51:05;;;;;;;12.68;3.33;;;;;;;21.86;63.58;98148.34;4945318;28;20057;-64
2021/06/29 07:53:31;;;;;;;8.73;3.22;;;;;;;21.63;63.58;98146.63;4942603;29;20402;-65
2021/06/29 07:55:59;;;;;;;7.60;3.42;;;;;;;21.61;63.82;98149.00;4945281;29;20435;-66
2021/06/29 07:58:28;;;;;;;12.88;3.15;;;;;;;21.51;63.93;98150.53;4945633;29;20147;-65
2021/06/29 08:00:55;;;;;;;10.95;2.78;;;;;;;21.38;65.00;98166.72;4944364;29;20158;-65
2021/06/29 08:03:21;;;;;;;9.10;3.35;;;;;;;20.93;66.13;98158.47;4944240;29;20331;-65
2021/06/29 08:05:50;;;;;;;9.00;3.13;;;;;;;20.69;67.20;98168.97;4944874;28;20057;-66
2021/06/29 08:08:16;;;;;;;8.93;3.10;;;;;;;20.40;68.53;98165.94;4944771;29;20047;-65
2021/06/29 08:10:42;;;;;;;5.88;2.97;;;;;;;20.47;68.32;98173.53;4944865;29;20094;-66
2021/06/29 08:13:13;;;;;;;11.57;3.63;;;;;;;20.74;67.71;98173.34;4945458;28;20509;-65
2021/06/29 08:15:42;;;;;;;11.25;4.28;;;;;;;20.99;67.13;98172.81;4945258;29;20069;-66
2021/06/29 08:18:09;;;;;;;10.13;4.10;;;;;;;21.27;65.97;98168.66;4944597;29;20051;-65
2021/06/29 08:20:35;;;;;;;9.07;3.33;;;;;;;21.14;66.23;98170.94;4943933;29;20232;-63
2021/06/29 08:23:05;;;;;;;9.65;3.70;;;;;;;21.01;66.44;98178.00;4904455;29;20154;-64
2021/06/29 08:25:33;;;;;;;9.00;3.15;;;;;;;20.87;66.33;98175.88;4945174;29;20049;-66
2021/06/29 08:27:59;;;;;;;10.73;3.25;;;;;;;20.74;66.90;98183.69;4944575;29;20143;-65
2021/06/29 08:30:27;;;;;;;7.47;3.15;;;;;;;20.67;66.85;98184.41;4944975;29;20051;-65
2021/06/29 08:32:53;;;;;;;6.70;2.85;;;;;;;20.48;66.63;98185.41;4944311;29;20047;-65
2021/06/29 08:35:20;;;;;;;6.35;2.90;;;;;;;20.37;66.79;98190.84;4912519;29;20460;-65
2021/06/29 08:37:48;;;;;;;12.15;3.15;;;;;;;20.30;66.57;98188.00;4944712;29;20051;-65
2021/06/29 08:40:15;;;;;;;13.70;3.30;;;;;;;20.50;66.30;98188.59;4943942;29;20062;-65
2021/06/29 08:42:42;;;;;;;6.60;3.00;;;;;;;20.45;66.58;98187.00;4944729;29;20055;-65
2021/06/29 08:45:10;;;;;;;8.18;3.40;;;;;;;20.36;66.75;98192.03;4943817;29;20047;-65
2021/06/29 08:47:39;;;;;;;6.30;2.92;;;;;;;20.35;66.66;98196.00;4943833;29;20051;-65
2021/06/29 08:50:10;;;;;;;6.53;3.13;;;;;;;20.26;67.35;98210.16;4944884;29;20063;-65
2021/06/29 08:52:39;;;;;;;9.27;2.80;;;;;;;20.18;67.46;98205.69;4943534;28;20151;-64
2021/06/29 08:55:10;;;;;;;10.15;3.03;;;;;;;20.16;67.45;98217.19;4944602;29;20138;-65
2021/06/29 08:57:37;;;;;;;9.93;3.22;;;;;;;20.19;67.01;98210.06;4943006;28;20405;-64
2021/06/29 09:00:05;;;;;;;8.57;3.20;;;;;;;20.21;67.04;98216.84;4943997;29;20055;-64
2021/06/29 09:02:32;;;;;;;9.13;3.50;;;;;;;20.43;66.68;98205.19;4942973;28;20311;-63
2021/06/29 09:04:59;;;;;;;8.57;3.42;;;;;;;20.41;66.76;98208.34;4944389;29;20051;-65
2021/06/29 09:07:30;;;;;;;9.18;3.05;;;;;;;20.39;66.62;98211.50;4933958;29;20048;-63
2021/06/29 09:09:57;;;;;;;9.80;3.40;;;;;;;20.25;67.27;98216.91;4944219;29;20071;-66
2021/06/29 09:12:43;;;;;;;;;;;;;;;20.27;67.31;98211.75;4927916;29;20055;-64
2021/06/29 09:15:33;;;;;;;11.85;3.17;;;;;;;20.31;66.81;98207.03;4944356;29;19933;-66
2021/06/29 09:18:13;;;;;;;12.02;3.33;;;;;;;20.35;66.52;98205.09;4943384;29;20039;-65
2021/06/29 09:20:42;;;;;;;7.72;2.67;;;;;;;20.39;66.44;98214.28;4944054;29;20051;-65
2021/06/29 09:23:11;;;;;;;8.23;2.97;;;;;;;20.32;66.78;98221.72;4944317;29;20077;-64
2021/06/29 09:25:38;;;;;;;9.13;3.10;;;;;;;20.25;66.80;98220.47;4943580;29;20515;-67
2021/06/29 09:28:05;;;;;;;9.63;2.95;;;;;;;20.30;66.51;98215.75;4944048;29;20064;-64
2021/06/29 09:30:40;;;;;;;12.38;3.55;;;;;;;20.30;66.54;98215.75;4943412;29;20530;-65
2021/06/29 09:33:08;;;;;;;8.55;3.80;;;;;;;20.64;65.85;98219.28;4944099;29;20048;-64
2021/06/29 09:35:36;;;;;;;8.27;3.45;;;;;;;20.82;65.42;98216.72;4941616;29;20059;-64
2021/06/29 09:38:03;;;;;;;;;;;;;;;20.72;65.79;98225.69;4944409;28;20155;-65
2021/06/29 09:40:32;;;;;;;9.57;3.55;;;;;;;20.70;65.91;98225.28;4943699;29;20344;-65
2021/06/29 09:43:13;;;;;;;9.23;3.60;;;;;;;20.56;66.48;98223.19;4942922;29;20052;-63
2021/06/29 09:45:44;;;;;;;9.63;3.42;;;;;;;20.59;66.19;98229.94;4942813;29;20051;-65
2021/06/29 09:48:11;;;;;;;11.20;3.42;;;;;;;20.55;66.76;98216.03;4942942;29;20047;-64
2021/06/29 09:50:39;;;;;;;;;;;;;;;20.85;65.67;98231.81;4942891;29;20065;-65
2021/06/29 09:53:14;;;;;;;9.95;3.05;;;;;;;21.36;65.00;98223.91;4943048;29;19936;-64
2021/06/29 09:55:42;;;;;;;13.45;3.35;;;;;;;21.67;63.55;98230.88;4943103;29;20081;-66
2021/06/29 09:58:10;;;;;;;11.05;2.80;;;;;;;21.65;62.70;98222.13;4943347;28;20067;-66
2021/06/29 10:00:43;;;;;;;8.90;2.90;;;;;;;21.71;62.63;98219.78;4942269;29;20055;-65
2021/06/29 10:03:22;;;;;;;8.10;3.00;;;;;;;21.77;62.78;98229.34;4942164;29;20055;-64
2021/06/29 10:05:48;;;;;;;4.32;2.20;;;;;;;21.93;62.18;98225.44;4924324;28;20524;-63
2021/06/29 10:08:30;;;;;;;8.13;2.73;;;;;;;22.19;61.17;98221.59;4942963;29;20051;-65
2021/06/29 10:11:24;;;;;;;11.60;2.83;;;;;;;22.34;60.79;98233.56;4909919;28;20513;-65
2021/06/29 10:13:57;;;;;;;17.20;2.53;;;;;;;22.39;60.61;98221.25;4942446;29;20058;-65
2021/06/29 10:16:24;;;;;;;8.10;2.88;;;;;;;22.51;59.51;98220.94;4943462;28;20156;-66
2021/06/29 10:21:27;;;;;;;10.25;2.50;;;;;;;22.07;60.23;98219.16;4910050;29;20047;-64
2021/06/29 10:23:57;;;;;;;6.85;2.70;;;;;;;21.91;60.65;98220.28;4941185;29;20493;-62
2021/06/29 10:26:27;;;;;;;5.35;2.30;;;;;;;21.52;61.29;98213.28;4942452;29;20047;-65
2021/06/29 10:28:57;;;;;;;7.40;2.50;;;;;;;21.28;62.63;98227.78;4942997;29;20054;-65
2021/06/29 10:31:27;;;;;;;10.35;2.78;;;;;;;21.04;63.16;98227.22;4942569;28;20055;-65
2021/06/29 10:33:55;;;;;;;6.20;2.30;;;;;;;21.13;63.53;98227.69;4940970;29;20508;-65
2021/06/29 10:36:25;;;;;;;8.30;2.42;;;;;;;21.52;62.40;98221.63;4942970;28;20104;-65
2021/06/29 10:38:57;;;;;;;5.53;2.42;;;;;;;21.75;62.12;98228.94;4925386;29;20138;-65
2021/06/29 10:41:26;;;;;;;11.05;2.75;;;;;;;21.82;62.59;98228.19;4942596;29;20505;-64
2021/06/29 10:43:53;;;;;;;7.75;2.45;;;;;;;21.81;62.55;98223.81;4925130;29;20043;-65
2021/06/29 10:46:41;;;;;;;5.90;2.33;;;;;;;21.80;61.94;98225.00;4942770;28;20475;-64
2021/06/29 10:49:38;;;;;;;9.13;2.38;;;;;;;21.62;61.66;98225.66;4942500;29;20059;-64
2021/06/29 10:52:05;;;;;;;;;;;;;;;21.44;62.25;98224.75;4940991;29;20563;-64
2021/06/29 10:54:47;;;;;;;9.40;2.60;;;;;;;21.16;62.87;98235.28;4909620;29;19926;-65
2021/06/29 10:57:16;;;;;;;8.73;2.40;;;;;;;20.94;63.55;98229.50;4941394;28;20039;-65
2021/06/29 10:59:49;;;;;;;9.85;2.50;;;;;;;20.93;63.33;98238.25;4942751;29;20052;-66
2021/06/29 11:02:28;;;;;;;6.80;2.17;;;;;;;21.02;62.82;98235.16;4941360;29;20052;-65
2021/06/29 11:04:55;;;;;;;5.75;2.28;;;;;;;20.99;62.36;98235.88;4942248;29;20063;-66
2021/06/29 11:07:43;;;;;;;9.65;2.22;;;;;;;20.99;62.69;98242.25;4941941;29;20047;-65
2021/06/29 11:10:15;;;;;;;7.20;2.35;;;;;;;21.11;62.47;98238.38;4940989;29;20051;-64
2021/06/29 11:12:50;;;;;;;7.20;2.50;;;;;;;21.29;62.17;98243.28;4941379;29;20059;-62
2021/06/29 11:15:16;;;;;;;7.55;2.50;;;;;;;21.18;62.48;98234.88;4940938;28;20046;-64
2021/06/29 11:18:00;;;;;;;10.73;2.50;;;;;;;21.01;62.46;98242.66;4942284;29;20428;-65
2021/06/29 11:20:38;;;;;;;10.32;2.20;;;;;;;20.66;63.47;98236.34;4940002;29;20047;-65
2021/06/29 11:23:11;;;;;;;6.55;2.10;;;;;;;20.63;63.42;98245.44;4942196;29;20377;-64
2021/06/29 11:25:47;;;;;;;10.18;2.80;;;;;;;20.66;63.65;98243.91;4942116;29;20055;-63
2021/06/29 11:28:16;;;;;;;12.30;2.43;;;;;;;20.73;63.83;98251.50;4940589;29;20130;-64
2021/06/29 11:31:09;;;;;;;8.65;2.33;;;;;;;21.00;63.21;98245.84;4941660;29;20087;-65
2021/06/29 11:33:54;;;;;;;5.35;2.00;;;;;;;21.41;62.04;98248.53;4941924;29;20055;-65
2021/06/29 11:36:52;;;;;;;7.20;2.17;;;;;;;21.47;62.49;98235.09;4941550;29;20059;-64
2021/06/29 11:39:24;;;;;;;10.23;2.10;;;;;;;21.41;62.33;98243.00;4941317;29;20166;-66
2021/06/29 11:41:54;;;;;;;6.65;2.17;;;;;;;21.22;63.18;98241.25;4942213;28;20052;-66
2021/06/29 11:44:42;;;;;;;8.65;2.35;;;;;;;21.07;63.39;98252.28;4942006;29;20059;-65
2021/06/29 11:47:13;;;;;;;5.82;2.30;;;;;;;20.87;63.97;98248.09;4940578;28;20044;-65
2021/06/29 11:49:42;;;;;;;9.98;2.47;;;;;;;20.76;64.58;98251.56;4941460;29;20086;-65